Time;durP1;ratioP1;P1;durP2;ratioP2;P2;SDS_P1;SDS_P2;PMS_P1;PMS_P2;Temp;Humidity;BMP_temperature;BMP_pressure;BME280_temperature;BME280_humidity;BME280_pressure;Samples;Min_cycle;Max_cycle;Signal;HPM_P1;HPM_P2
2021/06/22 00:00:25;;;;;;;;;;;14.90;1.40;;;16.20;100.00;94929.95;653804;216;24890;-71
2021/06/22 00:03:06;;;;;;;;;;;14.90;1.40;;;16.19;100.00;94925.28;654723;212;25496;-70
2021/06/22 00:05:51;;;;;;;;;;;14.80;1.40;;;16.19;100.00;94922.94;655334;216;24798;-71
2021/06/22 00:08:32;;;;;;;;;;;14.90;1.40;;;16.22;100.00;94910.47;653495;216;24724;-71
2021/06/22 00:11:13;;;;;;;;;;;14.90;1.40;;;16.26;100.00;94905.75;654912;216;24942;-70
2021/06/22 00:13:55;;;;;;;;;;;14.90;1.40;;;16.33;100.00;94897.76;653296;216;24731;-70
2021/06/22 00:16:36;;;;;;;;;;;14.90;1.40;;;16.30;100.00;94909.73;651976;216;24725;-70
2021/06/22 00:19:17;;;;;;;;;;;14.90;1.40;;;16.33;100.00;94916.06;652790;213;24733;-70
2021/06/22 00:21:59;;;;;;;;;;;14.90;1.40;;;16.32;100.00;94918.27;653840;216;25500;-70
2021/06/22 00:24:40;;;;;;;;;;;14.90;1.40;;;16.34;100.00;94917.70;649500;216;25707;-70
2021/06/22 00:27:21;;;;;;;;;;;14.90;1.40;;;16.35;100.00;94920.13;640411;220;24953;-69
2021/06/22 00:30:07;;;;;;;;;;;15.00;1.40;;;16.34;100.00;94920.94;654655;216;24842;-70
2021/06/22 00:32:48;;;;;;;;;;;15.10;1.40;;;16.35;100.00;94913.72;655108;216;24792;-70
2021/06/22 00:35:51;;;;;;;;;;;15.00;1.40;;;16.39;100.00;94921.27;651352;216;24979;-69
2021/06/22 00:38:32;;;;;;;;;;;15.00;1.40;;;16.43;100.00;94914.98;653974;216;24732;-70
2021/06/22 00:41:13;;;;;;;;;;;15.00;1.40;;;16.37;100.00;94911.20;652546;216;24726;-70
2021/06/22 00:44:04;;;;;;;;;;;15.00;1.40;;;16.34;100.00;94910.73;624399;226;24870;-70
2021/06/22 00:46:46;;;;;;;;;;;15.00;1.40;;;16.27;100.00;94906.20;653037;216;24809;-71
2021/06/22 00:49:27;;;;;;;;;;;15.00;1.40;;;16.29;100.00;94909.48;651387;212;25160;-69
2021/06/22 00:52:08;;;;;;;;;;;15.00;1.40;;;16.28;100.00;94908.38;655134;216;24789;-69
2021/06/22 00:54:50;;;;;;;;;;;15.00;1.40;;;16.22;100.00;94911.33;654577;212;24835;-69
2021/06/22 00:57:31;;;;;;;;;;;15.00;1.40;;;16.25;100.00;94910.19;653436;216;24809;-70
2021/06/22 01:00:13;;;;;;;;;;;15.00;1.40;;;16.24;100.00;94912.07;653139;216;24807;-69
2021/06/22 01:02:55;;;;;;;;;;;14.90;1.40;;;16.22;100.00;94909.28;655037;212;24819;-70
2021/06/22 01:05:36;;;;;;;;;;;14.90;1.40;;;16.19;100.00;94905.66;652296;212;24810;-69
2021/06/22 01:08:17;;;;;;;;;;;14.90;1.40;;;16.15;100.00;94906.78;653033;212;24892;-70
2021/06/22 01:10:58;;;;;;;;;;;14.90;1.40;;;16.18;100.00;94896.34;653180;212;24831;-70
2021/06/22 01:13:40;;;;;;;;;;;14.90;1.40;;;16.17;100.00;94891.80;654689;216;24737;-70
2021/06/22 01:16:24;;;;;;;;;;;14.90;1.40;;;16.20;100.00;94884.98;651644;213;24819;-70
2021/06/22 01:19:05;;;;;;;;;;;14.80;1.40;;;16.25;100.00;94890.45;652560;212;24838;-70
2021/06/22 01:21:46;;;;;;;;;;;14.90;1.40;;;16.28;100.00;94891.11;653402;216;24728;-69
2021/06/22 01:24:27;;;;;;;;;;;14.90;1.40;;;16.31;100.00;94892.58;652571;212;24811;-70
2021/06/22 01:27:09;;;;;;;;;;;14.90;1.40;;;16.26;100.00;94892.13;652467;212;24846;-70
2021/06/22 01:29:50;;;;;;;;;;;14.90;1.40;;;16.31;100.00;94893.12;653484;216;24855;-71
2021/06/22 01:32:31;;;;;;;;;;;14.90;1.40;;;16.24;100.00;94895.05;653651;212;24907;-70
2021/06/22 01:35:51;;;;;;;5.40;2.83;;;14.80;1.40;;;16.15;100.00;94888.69;646257;212;31507;-70
2021/06/22 01:38:33;;;;;;;3.60;2.60;;;14.80;1.40;;;16.19;100.00;94889.09;647288;216;32259;-72
2021/06/22 01:41:14;;;;;;;5.00;3.20;;;14.70;1.40;;;16.22;100.00;94888.02;646966;212;31585;-69
2021/06/22 01:43:56;;;;;;;4.40;3.42;;;14.80;1.40;;;16.25;100.00;94888.03;647264;216;35883;-70
2021/06/22 01:46:38;;;;;;;5.53;3.92;;;14.80;1.40;;;16.33;100.00;94895.33;644934;212;31598;-71
2021/06/22 01:49:20;;;;;;;4.60;3.73;;;14.80;1.40;;;16.31;100.00;94889.71;645124;216;32155;-69
2021/06/22 01:52:01;;;;;;;4.00;3.33;;;14.90;1.40;;;16.27;100.00;94893.41;646146;216;31828;-70
2021/06/22 01:54:43;;;;;;;4.77;3.77;;;14.90;1.40;;;16.35;100.00;94892.91;648116;216;31610;-70
2021/06/22 01:57:25;;;;;;;6.70;3.80;;;14.90;1.40;;;16.39;100.00;94896.92;645416;216;31667;-70
2021/06/22 02:00:08;;;;;;;4.97;3.90;;;14.90;1.40;;;16.39;100.00;94897.25;646626;216;42197;-71
2021/06/22 02:02:49;;;;;;;4.65;3.50;;;14.90;1.40;;;16.43;100.00;94901.94;646519;216;43052;-70
2021/06/22 02:05:31;;;;;;;4.00;3.47;;;14.90;1.40;;;16.39;100.00;94902.22;649130;216;32210;-70
2021/06/22 02:08:13;;;;;;;3.65;3.30;;;14.80;1.40;;;16.40;100.00;94913.59;647524;212;42444;-70
2021/06/22 02:11:01;;;;;;;5.50;3.50;;;14.90;1.40;;;16.42;100.00;94908.01;648497;216;31819;-77
2021/06/22 02:13:49;;;;;;;4.93;3.40;;;14.90;1.40;;;16.44;100.00;94902.96;646350;212;42282;-70
2021/06/22 02:16:31;;;;;;;3.72;3.12;;;14.90;1.40;;;16.33;100.00;94906.58;645860;212;42812;-70
2021/06/22 02:19:12;;;;;;;3.92;3.22;;;14.90;1.40;;;16.33;100.00;94899.89;645260;212;42203;-70
2021/06/22 02:21:53;;;;;;;3.22;2.92;;;14.90;1.40;;;16.40;100.00;94890.56;647838;216;42195;-70
2021/06/22 02:24:35;;;;;;;6.93;3.40;;;15.00;1.40;;;16.49;100.00;94885.92;646008;212;42449;-70
2021/06/22 02:27:27;;;;;;;4.00;3.20;;;15.00;1.40;;;16.57;100.00;94885.25;645726;212;42218;-70
2021/06/22 02:30:11;;;;;;;3.92;3.10;;;15.10;1.40;;;16.62;100.00;94883.16;648887;212;42305;-70
2021/06/22 02:32:53;;;;;;;5.10;3.40;;;15.10;1.40;;;16.56;100.00;94881.23;647050;216;42876;-69
2021/06/22 02:35:51;;;;;;;3.70;3.30;;;15.00;1.40;;;16.42;100.00;94881.20;618053;222;32141;-69
2021/06/22 02:38:33;;;;;;;3.50;3.20;;;15.00;1.40;;;16.46;100.00;94875.87;648801;216;32141;-70
2021/06/22 02:41:15;;;;;;;4.55;3.30;;;14.90;1.40;;;16.44;100.00;94873.53;646903;212;31903;-71
2021/06/22 02:43:56;;;;;;;4.85;3.35;;;14.90;1.40;;;16.47;100.00;94866.88;646922;216;31589;-70
2021/06/22 02:46:38;;;;;;;5.70;3.60;;;15.00;1.40;;;16.45;100.00;94860.60;622177;226;42871;-69
2021/06/22 02:49:20;;;;;;;4.28;3.58;;;15.00;1.40;;;16.48;100.00;94861.17;647159;212;42206;-70
2021/06/22 02:52:05;;;;;;;3.90;3.20;;;15.00;1.40;;;16.49;100.00;94863.67;646156;216;42750;-70
2021/06/22 02:54:46;;;;;;;4.10;3.45;;;14.90;1.40;;;16.53;100.00;94866.95;645972;212;31622;-70
2021/06/22 02:57:27;;;;;;;3.72;3.30;;;14.90;1.40;;;16.42;100.00;94866.34;647335;216;43227;-69
2021/06/22 03:00:10;;;;;;;3.45;2.95;;;14.90;1.40;;;16.45;100.00;94861.13;649354;216;31672;-70
2021/06/22 03:02:52;;;;;;;3.83;3.40;;;14.90;1.40;;;16.48;100.00;94861.25;645421;212;42758;-69
2021/06/22 03:05:34;;;;;;;4.05;3.60;;;15.00;1.40;;;16.58;100.00;94866.16;647334;216;31861;-70
2021/06/22 03:08:16;;;;;;;6.65;3.97;;;15.00;1.40;;;16.49;100.00;94868.44;622494;226;32211;-70
2021/06/22 03:10:57;;;;;;;5.22;4.00;;;15.00;1.40;;;16.46;100.00;94875.70;648081;216;31704;-69
2021/06/22 03:13:39;;;;;;;4.13;3.70;;;15.00;1.40;;;16.50;100.00;94874.76;645991;212;31710;-69
2021/06/22 03:16:21;;;;;;;5.10;3.58;;;15.10;1.40;;;16.40;100.00;94874.27;645408;213;42797;-70
2021/06/22 03:19:02;;;;;;;3.83;3.53;;;15.00;1.40;;;16.47;100.00;94866.39;646979;216;42537;-69
2021/06/22 03:21:45;;;;;;;4.20;3.80;;;15.00;1.40;;;16.57;100.00;94868.42;648276;212;31606;-69
2021/06/22 03:24:26;;;;;;;5.18;4.12;;;15.00;1.40;;;16.51;100.00;94860.19;645596;216;42243;-70
2021/06/22 03:27:07;;;;;;;4.60;3.45;;;15.00;1.40;;;16.54;100.00;94861.25;647284;216;42192;-69
2021/06/22 03:29:49;;;;;;;6.22;3.80;;;14.90;1.40;;;16.57;100.00;94864.84;646467;212;42185;-69
2021/06/22 03:32:31;;;;;;;6.43;3.55;;;14.90;1.40;;;16.65;100.00;94867.92;646677;212;42209;-70
2021/06/22 03:35:51;;;;;;;5.15;3.97;;;15.00;1.40;;;16.80;100.00;94873.70;645301;212;31602;-69
2021/06/22 03:38:33;;;;;;;4.50;4.10;;;15.00;1.40;;;16.83;100.00;94875.38;647684;216;31563;-68
2021/06/22 03:41:14;;;;;;;5.75;3.60;;;15.10;1.40;;;16.84;100.00;94876.82;644833;216;32195;-69
2021/06/22 03:43:57;;;;;;;4.62;4.22;;;15.10;1.40;;;16.76;100.00;94875.80;647467;216;42280;-69
2021/06/22 03:46:39;;;;;;;4.70;3.78;;;15.10;1.40;;;16.72;100.00;94876.52;647917;212;42484;-69
2021/06/22 03:49:20;;;;;;;5.97;4.10;;;15.10;1.40;;;16.64;100.00;94875.80;648203;216;31682;-70
2021/06/22 03:52:02;;;;;;;5.82;3.90;;;15.10;1.40;;;16.61;100.00;94869.56;644630;214;42369;-70
2021/06/22 03:54:44;;;;;;;4.10;3.80;;;15.10;1.40;;;16.74;100.00;94871.37;646177;212;42211;-70
2021/06/22 03:57:26;;;;;;;4.70;4.30;;;15.10;1.40;;;16.80;100.00;94867.17;647464;212;31554;-68
2021/06/22 04:00:08;;;;;;;4.70;4.30;;;15.00;1.40;;;16.80;100.00;94865.00;631087;217;31858;-70
2021/06/22 04:05:24;;;;;;;8.98;3.90;;;14.90;1.40;;;16.77;100.00;94859.62;646179;212;31706;-69
2021/06/22 04:08:06;;;;;;;4.70;4.10;;;14.90;1.40;;;16.72;100.00;94862.59;644860;216;32022;-70
2021/06/22 04:10:48;;;;;;;4.75;4.18;;;14.80;1.40;;;16.60;100.00;94865.34;647791;212;31579;-69
2021/06/22 04:13:29;;;;;;;5.30;4.80;;;14.80;1.40;;;16.45;100.00;94865.03;616283;225;42733;-69
2021/06/22 04:16:11;;;;;;;4.70;4.30;;;14.80;1.40;;;16.47;100.00;94872.13;633819;216;42408;-70
2021/06/22 04:18:53;;;;;;;5.12;4.30;;;14.90;1.40;;;16.59;100.00;94875.73;650072;216;31652;-70
2021/06/22 04:21:38;;;;;;;5.28;4.70;;;14.90;1.40;;;16.68;100.00;94878.91;647992;216;31640;-70
2021/06/22 04:24:19;;;;;;;5.85;4.82;;;14.90;1.40;;;16.88;100.00;94880.80;647008;212;31573;-70
2021/06/22 04:27:01;;;;;;;6.68;4.53;;;15.00;1.40;;;16.80;100.00;94879.20;647164;213;42177;-70
2021/06/22 04:29:42;;;;;;;5.28;4.78;;;15.10;1.40;;;16.85;100.00;94880.47;646618;216;31595;-70
2021/06/22 04:32:27;;;;;;;5.95;5.15;;;15.10;1.40;;;16.90;100.00;94886.42;646226;216;42466;-70
2021/06/22 04:35:51;;;;;;;5.47;4.40;;;15.20;1.40;;;16.92;100.00;94888.70;648784;216;31564;-69
2021/06/22 04:38:36;;;;;;;6.95;4.93;;;15.20;1.40;;;16.99;100.00;94884.54;647257;212;31639;-69
2021/06/22 04:41:17;;;;;;;5.68;5.05;;;15.30;1.40;;;17.22;100.00;94884.55;647155;212;31679;-70
2021/06/22 04:43:59;;;;;;;5.32;4.82;;;15.30;1.40;;;17.21;100.00;94878.22;649457;216;31561;-69
2021/06/22 04:46:41;;;;;;;6.75;5.15;;;15.20;1.40;;;17.21;100.00;94877.44;645178;216;31656;-70
2021/06/22 04:49:22;;;;;;;5.47;4.97;;;15.20;1.40;;;17.11;100.00;94879.77;648740;213;31547;-70
2021/06/22 04:52:04;;;;;;;6.07;5.30;;;15.20;1.40;;;17.19;100.00;94880.41;645621;212;31647;-71
2021/06/22 04:54:47;;;;;;;6.47;5.68;;;15.20;1.40;;;17.16;100.00;94877.87;645014;216;31592;-70
2021/06/22 04:57:29;;;;;;;9.47;6.20;;;15.20;1.40;;;17.12;100.00;94871.18;645764;216;31813;-70
2021/06/22 05:00:11;;;;;;;7.30;6.45;;;15.20;1.40;;;17.13;100.00;94871.67;647574;212;31706;-70
2021/06/22 05:02:53;;;;;;;6.70;6.10;;;15.20;1.40;;;17.03;100.00;94872.58;645740;212;31528;-70
2021/06/22 05:05:38;;;;;;;7.50;6.80;;;15.20;1.40;;;17.14;100.00;94870.93;645920;212;32373;-69
2021/06/22 05:08:19;;;;;;;8.32;5.97;;;15.20;1.40;;;17.12;100.00;94864.73;646603;212;32360;-70
2021/06/22 05:11:01;;;;;;;8.20;6.50;;;15.20;1.40;;;17.19;100.00;94866.39;645413;216;32149;-70
2021/06/22 05:13:43;;;;;;;9.10;7.40;;;15.30;1.40;;;17.22;100.00;94865.11;646710;212;32158;-70
2021/06/22 05:16:24;;;;;;;9.30;7.18;;;15.30;1.40;;;17.28;100.00;94859.00;647091;216;32110;-70
2021/06/22 05:19:06;;;;;;;8.95;7.75;;;15.40;1.40;;;17.31;100.00;94854.78;623484;222;32436;-69
2021/06/22 05:21:48;;;;;;;8.35;7.50;;;15.50;1.40;;;17.38;100.00;94855.91;617622;226;31958;-70
2021/06/22 05:24:30;;;;;;;9.50;8.30;;;15.60;1.40;;;17.43;100.00;94864.11;645065;216;31666;-70
2021/06/22 05:27:12;;;;;;;9.98;8.93;;;15.70;1.40;;;17.52;100.00;94871.30;648017;216;31659;-69
2021/06/22 05:29:53;;;;;;;8.40;7.60;;;15.80;1.40;;;17.57;100.00;94877.39;645723;216;31826;-71
2021/06/22 05:32:35;;;;;;;9.93;7.60;;;15.80;1.40;;;17.61;100.00;94874.42;649069;216;31572;-70
2021/06/22 05:35:54;;;;;;;7.45;6.85;;;15.80;1.40;;;17.55;100.00;94871.16;647507;216;32203;-69
2021/06/22 05:38:36;;;;;;;7.97;7.20;;;15.80;1.40;;;17.60;100.00;94866.69;651192;216;31543;-69
2021/06/22 05:41:17;;;;;;;6.78;6.28;;;15.80;1.40;;;17.56;100.00;94865.69;645837;216;31641;-69
2021/06/22 05:43:59;;;;;;;7.30;6.60;;;15.80;1.40;;;17.75;100.00;94861.08;618926;225;32064;-70
2021/06/22 05:46:41;;;;;;;8.00;7.30;;;15.90;1.40;;;17.84;100.00;94861.52;647224;212;31581;-71
2021/06/22 05:49:22;;;;;;;8.80;8.00;;;16.00;1.40;;;17.93;100.00;94863.34;649445;212;31689;-70
2021/06/22 05:52:04;;;;;;;7.10;6.40;;;16.20;1.40;;;17.94;100.00;94872.02;645663;212;31642;-69
2021/06/22 05:54:47;;;;;;;7.43;6.18;;;16.20;1.40;;;18.14;100.00;94868.83;649194;216;31548;-70
2021/06/22 05:57:34;;;;;;;6.50;5.93;;;16.30;1.40;;;18.35;100.00;94868.55;646302;216;31592;-70
2021/06/22 06:00:18;;;;;;;8.60;5.93;;;16.40;1.40;;;18.19;100.00;94875.30;646358;216;31514;-69
2021/06/22 06:02:59;;;;;;;7.53;5.65;;;16.40;1.40;;;18.35;100.00;94867.17;644638;216;31553;-70
2021/06/22 06:05:43;;;;;;;8.00;5.90;;;16.50;1.40;;;18.44;100.00;94868.91;647551;212;32195;-70
2021/06/22 06:08:33;;;;;;;6.15;5.55;;;16.60;1.40;;;18.55;100.00;94872.73;645727;216;31487;-70
2021/06/22 06:11:18;;;;;;;6.10;5.60;;;16.70;1.40;;;18.65;100.00;94877.36;647132;216;31656;-70
2021/06/22 06:14:00;;;;;;;7.50;6.85;;;16.80;1.40;;;18.84;100.00;94879.55;644107;212;31667;-70
2021/06/22 06:16:45;;;;;;;7.70;6.03;;;16.90;1.40;;;18.88;100.00;94879.06;646813;216;31567;-69
2021/06/22 06:19:27;;;;;;;6.30;5.70;;;17.00;1.40;;;19.03;100.00;94880.14;646492;216;42182;-70
2021/06/22 06:22:08;;;;;;;5.60;5.18;;;17.20;1.40;;;19.15;100.00;94878.48;647166;216;31549;-69
2021/06/22 06:24:59;;;;;;;5.40;4.90;;;17.20;1.40;;;19.25;100.00;94878.37;645646;216;31685;-70
2021/06/22 06:27:46;;;;;;;5.53;4.33;;;17.30;1.40;;;19.29;100.00;94876.67;646757;216;31534;-70
2021/06/22 06:30:23;;;;;;;5.03;4.20;;;17.40;1.40;;;19.47;100.00;94878.39;646536;212;31609;-70
2021/06/22 06:35:57;;;;;;;6.80;3.70;;;17.50;1.40;;;19.64;100.00;94880.34;647424;216;31972;-70
2021/06/22 06:38:45;;;;;;;3.40;2.95;;;17.60;1.40;;;19.72;100.00;94887.23;648393;212;32159;-70
2021/06/22 06:41:26;;;;;;;3.60;2.80;;;17.70;1.40;;;-143.44;100.00;122422.95;645491;216;31657;-69
2021/06/22 06:44:10;;;;;;;4.30;2.50;;;17.70;1.40;;;;;;619726;222;32044;-70
2021/06/22 06:46:51;;;;;;;3.22;2.70;;;17.70;1.40;;;;;;647143;216;31754;-70
2021/06/22 06:49:36;;;;;;;5.18;2.90;;;17.70;1.40;;;;;;644506;216;31582;-70
2021/06/22 06:52:23;;;;;;;3.22;2.80;;;17.90;1.40;;;;;;648037;216;31566;-70
2021/06/22 06:55:05;;;;;;;4.50;3.30;;;18.00;1.40;;;;;;647836;212;31551;-70
2021/06/22 06:57:54;;;;;;;6.10;3.47;;;18.10;1.40;;;;;;643514;212;31585;-69
2021/06/22 07:00:41;;;;;;;3.95;3.30;;;18.30;1.40;;;;;;644222;212;31608;-70
2021/06/22 07:03:22;;;;;;;4.15;3.28;;;18.30;1.40;;;;;;646673;216;31588;-71
2021/06/22 07:06:03;;;;;;;5.50;3.95;;;18.40;1.40;;;;;;646608;216;31580;-70
2021/06/22 07:08:44;;;;;;;4.80;4.03;;;18.50;1.40;;;;;;647305;212;31929;-70
2021/06/22 07:13:59;;;;;;;5.63;4.20;;;18.60;1.40;;;;;;647019;216;31949;-70
2021/06/22 07:16:40;;;;;;;4.70;4.20;;;18.60;1.40;;;;;;647539;216;31556;-70
2021/06/22 07:19:21;;;;;;;4.15;3.22;;;18.80;1.40;;;;;;646920;212;31587;-70
2021/06/22 07:22:03;;;;;;;4.10;3.67;;;19.00;1.40;;;;;;644704;216;31566;-69
2021/06/22 07:24:44;;;;;;;4.47;3.20;;;19.10;1.40;;;;;;646989;216;31579;-70
2021/06/22 07:27:25;;;;;;;5.97;3.20;;;19.20;1.40;;;;;;647337;212;31757;-69
2021/06/22 07:30:07;;;;;;;5.00;3.20;;;19.30;1.40;;;;;;644731;212;31646;-69
2021/06/22 07:32:48;;;;;;;4.12;2.80;;;19.50;1.40;;;;;;645696;212;31669;-69
2021/06/22 07:35:53;;;;;;;3.78;2.83;;;19.60;1.40;;;21.10;100.00;94874.20;646038;216;31625;-70
2021/06/22 07:38:41;;;;;;;4.37;3.00;;;19.60;1.40;;;21.38;100.00;94877.28;649202;216;31649;-70
2021/06/22 07:41:25;;;;;;;4.50;2.60;;;19.80;1.40;;;21.67;100.00;94866.91;648252;216;31566;-70
2021/06/22 07:44:07;;;;;;;2.97;2.57;;;20.10;1.40;;;21.76;100.00;94866.62;619324;225;32898;-69
2021/06/22 07:46:49;;;;;;;3.80;2.60;;;20.20;1.40;;;21.82;100.00;94864.19;648876;212;31733;-70
2021/06/22 07:49:31;;;;;;;3.33;2.35;;;20.20;1.40;;;21.76;100.00;94862.77;646362;216;31586;-70
2021/06/22 07:52:15;;;;;;;3.60;2.60;;;20.30;1.40;;;21.69;100.00;94859.71;644505;216;31564;-69
2021/06/22 07:54:57;;;;;;;4.50;2.90;;;20.30;1.40;;;21.60;100.00;94859.31;618980;222;31900;-69
2021/06/22 07:57:39;;;;;;;2.85;2.40;;;20.40;1.40;;;21.85;100.00;94857.38;646839;212;31691;-70
2021/06/22 08:00:37;;;;;;;2.90;2.25;;;20.50;1.40;;;21.96;100.00;94855.77;617719;226;31893;-71
2021/06/22 08:03:19;;;;;;;4.03;2.10;;;20.70;1.40;;;21.93;94.69;94848.05;647767;216;31512;-69
2021/06/22 08:06:00;;;;;;;4.80;2.40;;;20.70;1.40;;;22.11;96.70;94854.48;647825;212;31714;-70
2021/06/22 08:08:42;;;;;;;3.78;2.10;;;20.80;1.40;;;22.12;95.25;94855.13;645832;216;31625;-68
2021/06/22 08:11:24;;;;;;;3.30;2.03;;;20.90;1.40;;;22.16;95.01;94857.52;649254;216;31854;-69
2021/06/22 08:14:05;;;;;;;5.30;2.12;;;21.00;1.40;;;22.21;96.17;94854.09;644898;212;31644;-70
2021/06/22 08:16:47;;;;;;;3.72;2.00;;;21.00;1.40;;;22.33;97.93;94853.92;646232;213;31977;-70
2021/06/22 08:19:29;;;;;;;3.15;2.30;;;21.20;1.40;;;22.60;97.57;94854.95;648039;212;31613;-70
2021/06/22 08:22:11;;;;;;;2.40;2.20;;;21.50;1.40;;;22.65;92.22;94850.02;647719;212;31577;-69
2021/06/22 08:24:52;;;;;;;2.20;2.00;;;21.60;1.40;;;22.80;94.31;94850.91;647141;212;42424;-70
2021/06/22 08:27:34;;;;;;;2.80;2.20;;;21.60;1.40;;;22.90;92.60;94848.72;648124;212;31558;-69
2021/06/22 08:30:17;;;;;;;2.50;2.10;;;21.70;1.40;;;23.21;89.31;94849.27;648712;216;31548;-69
2021/06/22 08:32:59;;;;;;;3.42;2.10;;;22.00;1.40;;;23.43;90.24;94855.52;645729;216;32041;-69
2021/06/22 08:35:52;;;;;;;6.30;2.60;;;22.20;1.40;;;23.57;88.51;94859.77;646901;212;31560;-70
2021/06/22 08:38:33;;;;;;;2.90;1.98;;;22.30;1.40;;;23.73;90.49;94856.63;646336;212;31587;-70
2021/06/22 08:41:15;;;;;;;6.32;2.40;;;22.40;1.40;;;23.58;86.84;94860.06;647344;212;31615;-70
2021/06/22 08:46:57;;;;;;;3.87;2.10;;;22.10;1.40;;;23.81;82.90;94864.03;644200;216;31815;-69
2021/06/22 08:49:39;;;;;;;4.80;2.30;;;22.30;1.40;;;23.74;81.02;94867.77;632209;217;31751;-70
2021/06/22 08:52:23;;;;;;;3.10;2.03;;;22.40;1.40;;;24.18;82.32;94863.22;645016;216;31606;-69
2021/06/22 08:55:03;;;;;;;4.50;2.00;;;22.80;1.40;;;24.35;81.68;94856.83;646427;212;31603;-70
2021/06/22 08:57:45;;;;;;;3.00;2.30;;;23.00;1.40;;;24.34;80.32;94860.02;647759;216;31965;-69
2021/06/22 09:00:30;;;;;;;4.10;2.00;;;23.10;1.40;;;24.18;75.83;94860.20;645154;216;31569;-70
2021/06/22 09:03:22;;;;;;;2.70;2.10;;;23.00;1.40;;;24.66;77.76;94861.50;645996;212;31629;-70
2021/06/22 09:06:03;;;;;;;2.90;2.40;;;23.30;1.40;;;24.90;78.26;94857.23;649750;216;31855;-69
2021/06/22 09:08:51;;;;;;;3.33;2.08;;;23.60;1.40;;;25.10;75.99;94860.09;648568;215;31674;-70
2021/06/22 09:11:32;;;;;;;3.90;2.30;;;23.70;1.40;;;25.27;75.76;94861.02;648718;212;31742;-70
2021/06/22 09:14:14;;;;;;;3.22;2.20;;;23.80;1.40;;;25.33;75.63;94859.19;647814;216;31699;-69
2021/06/22 09:17:01;;;;;;;4.10;2.80;;;24.00;1.40;;;25.58;73.06;94856.61;649589;212;31700;-70
2021/06/22 09:19:43;;;;;;;5.05;2.40;;;24.00;1.40;;;25.53;72.67;94853.90;650644;216;31554;-69
2021/06/22 09:22:28;;;;;;;3.37;2.08;;;24.10;1.40;;;25.69;69.23;94861.80;645650;216;31992;-70
2021/06/22 09:25:12;;;;;;;4.03;1.70;;;24.40;1.40;;;25.93;69.09;94852.65;647216;212;31686;-70
2021/06/22 09:27:53;;;;;;;2.58;1.92;;;24.60;1.40;;;26.91;68.20;94855.25;646172;216;31566;-70
2021/06/22 09:30:51;;;;;;;3.85;1.80;;;25.80;1.40;;;27.97;61.21;94852.08;646644;216;31990;-70
2021/06/22 09:36:00;;;;;;;4.50;1.90;;;27.90;1.40;;;30.14;58.80;94851.91;618168;225;31907;-69
2021/06/22 09:38:45;;;;;;;4.00;2.10;;;28.60;1.40;;;30.26;55.51;94850.34;647165;212;32104;-70
2021/06/22 09:41:28;;;;;;;2.33;1.80;;;27.40;1.40;;;30.98;57.85;94850.55;646382;213;31578;-70
2021/06/22 09:44:13;;;;;;;4.75;1.65;;;28.20;1.40;;;32.00;50.91;94855.51;646459;212;31611;-70
2021/06/22 09:46:56;;;;;;;2.40;1.73;;;28.90;1.40;;;32.98;48.79;94850.53;647160;212;31604;-70
2021/06/22 09:49:39;;;;;;;4.47;1.90;;;29.10;1.40;;;31.95;51.40;94852.41;645472;216;32016;-70
2021/06/22 09:52:20;;;;;;;2.70;2.00;;;28.40;1.40;;;32.37;49.18;94850.77;645124;216;31634;-70
2021/06/22 09:55:01;;;;;;;2.87;1.40;;;28.50;1.40;;;32.52;49.56;94849.14;645870;216;31653;-70
2021/06/22 09:57:45;;;;;;;2.30;1.55;;;29.00;1.40;;;33.04;44.25;94852.89;646570;216;31735;-70
2021/06/22 10:00:26;;;;;;;2.00;1.40;;;28.90;1.40;;;33.66;47.51;94847.32;645802;216;31627;-71
2021/06/22 10:03:10;;;;;;;3.40;1.80;;;29.10;1.40;;;35.67;48.26;94846.50;647141;216;31894;-70
2021/06/22 10:05:54;;;;;;;3.00;1.80;;;29.80;1.40;;;35.20;43.65;94844.95;645467;216;31647;-70
2021/06/22 10:08:59;;;;;;;2.30;1.80;;;29.20;1.40;;;33.79;42.88;94849.49;648076;216;31579;-70
2021/06/22 10:11:41;;;;;;;3.30;1.70;;;28.50;1.40;;;32.89;45.61;94849.52;646999;216;31734;-71
2021/06/22 10:14:27;;;;;;;4.47;2.40;;;27.00;1.40;;;31.89;47.03;94853.45;646613;212;31676;-71
2021/06/22 10:19:48;;;;;;;1.90;1.70;;;28.00;1.40;;;33.41;44.48;94847.22;648034;212;31689;-71
2021/06/22 10:22:31;;;;;;;2.80;1.70;;;28.50;1.40;;;32.75;46.68;94854.54;645737;216;31739;-71
2021/06/22 10:25:12;;;;;;;2.53;1.80;;;28.50;1.40;;;33.50;44.76;94850.98;645271;216;31557;-71
2021/06/22 10:27:53;;;;;;;7.18;2.50;;;28.50;1.40;;;33.79;44.86;94853.86;645409;216;31727;-70
2021/06/22 10:30:35;;;;;;;2.50;1.90;;;28.90;1.40;;;33.73;47.06;94853.12;645994;216;31533;-71
2021/06/22 10:35:52;;;;;;;2.33;1.70;;;29.80;1.40;;;35.99;40.97;94856.03;617988;222;31949;-70
2021/06/22 10:38:36;;;;;;;3.87;1.80;;;29.80;1.40;;;35.53;44.08;94853.73;643974;212;31741;-71
2021/06/22 10:41:18;;;;;;;3.00;1.90;;;29.70;1.40;;;34.72;42.75;94857.45;648272;216;31671;-71
2021/06/22 10:43:59;;;;;;;3.45;2.10;;;28.50;1.40;;;34.06;42.45;94864.13;644724;216;31666;-71
2021/06/22 10:46:41;;;;;;;3.30;1.80;;;28.50;1.40;;;33.63;44.65;94864.23;648778;216;42185;-71
2021/06/22 10:49:23;;;;;;;2.60;1.90;;;28.90;1.40;;;32.00;45.91;94873.20;646355;216;31562;-72
2021/06/22 10:52:05;;;;;;;2.75;2.17;;;27.60;1.40;;;31.88;45.49;94875.42;648285;212;32031;-70
2021/06/22 10:54:50;;;;;;;2.78;1.95;;;27.40;1.40;;;31.95;46.04;94871.64;647450;216;31961;-70
2021/06/22 11:00:22;;;;;;;1.85;1.52;;;28.90;1.40;;;34.80;42.61;94869.05;649936;212;31598;-71
2021/06/22 11:03:04;;;;;;;2.45;1.70;;;28.60;1.40;;;33.53;43.72;94874.11;648488;216;42131;-71
2021/06/22 11:05:46;;;;;;;3.50;2.12;;;28.60;1.40;;;32.99;43.58;94884.64;647917;212;32812;-71
2021/06/22 11:08:33;;;;;;;2.25;1.67;;;27.20;1.40;;;30.83;47.35;94887.13;600019;233;32550;-74
2021/06/22 11:11:19;;;;;;;2.05;1.60;;;26.60;1.40;;;33.35;44.76;94877.97;649194;216;31574;-71
2021/06/22 11:14:00;;;;;;;2.50;1.90;;;28.80;1.40;;;35.76;40.35;94879.50;646119;216;31806;-71
2021/06/22 11:16:44;;;;;;;1.95;1.70;;;29.90;1.40;;;35.19;38.53;94877.97;647373;216;31899;-72
2021/06/22 11:19:32;;;;;;;2.10;1.50;;;29.00;1.40;;;35.99;40.26;94881.88;647102;212;31819;-72
2021/06/22 11:22:16;;;;;;;1.50;1.40;;;30.50;1.40;;;37.28;40.07;94876.72;647168;213;31691;-72
2021/06/22 11:24:57;;;;;;;2.97;1.70;;;31.20;1.40;;;37.01;39.23;94880.33;647538;216;42256;-72
2021/06/22 11:28:00;;;;;;;2.37;2.10;;;30.50;1.40;;;35.17;40.71;94885.93;647169;216;31971;-72
2021/06/22 11:30:50;;;;;;;3.80;1.85;;;28.70;1.40;;;34.23;41.68;94886.00;648019;212;32168;-71
2021/06/22 11:35:52;;;;;;;1.92;1.70;;;29.60;1.40;;;36.82;36.58;94881.44;647088;216;31601;-71
2021/06/22 11:38:34;;;;;;;2.15;1.80;;;30.40;1.40;;;36.27;39.60;94885.34;648828;212;32634;-71
2021/06/22 11:41:16;;;;;;;2.67;1.75;;;30.20;1.40;;;36.00;39.82;94880.71;644925;212;32277;-71
2021/06/22 11:46:50;;;;;;;2.00;1.80;;;29.70;1.40;;;35.42;40.79;94872.50;646931;216;31600;-71
2021/06/22 11:49:41;;;;;;;2.58;1.70;;;29.40;1.40;;;36.44;37.61;94861.72;647651;212;31582;-71
2021/06/22 11:52:22;;;;;;;3.25;2.05;;;30.50;1.40;;;38.42;38.70;94854.61;647833;216;32578;-71
2021/06/22 11:55:14;;;;;;;2.60;2.30;;;31.10;1.40;;;37.44;37.19;94854.31;645416;216;31592;-72
2021/06/22 11:57:53;;;;;;;4.12;2.20;;;30.90;1.40;;;36.47;38.02;94856.48;631927;221;31994;-71
2021/06/22 12:00:35;;;;;;;4.40;2.15;;;29.50;1.40;;;33.50;41.26;94855.38;648321;212;31587;-71
2021/06/22 12:03:19;;;;;;;3.12;2.08;;;27.50;1.40;;;32.71;44.47;94852.90;630359;221;31817;-71
2021/06/22 12:06:02;;;;;;;2.50;2.00;;;27.90;1.40;;;35.25;39.84;94846.00;646718;212;42245;-71
2021/06/22 12:08:50;;;;;;;2.60;2.40;;;28.90;1.40;;;34.19;40.51;94846.47;647369;212;42501;-71
2021/06/22 12:11:43;;;;;;;2.10;1.90;;;28.10;1.40;;;33.13;42.87;94843.95;646519;216;31760;-72
2021/06/22 12:14:21;;;;;;;2.40;2.20;;;28.10;1.40;;;34.05;40.98;94853.53;646488;216;31731;-72